sensor_id;sensor_type;location;lat;lon;timestamp;P1;durP1;ratioP1;P2;durP2;ratioP2
40695;SDS011;40425;51.102;17.208;2023-02-01T00:04:34;4.30;;;0.77;;
40695;SDS011;40425;51.102;17.208;2023-02-01T00:09:35;1.73;;;0.10;;
40695;SDS011;40425;51.102;17.208;2023-02-01T00:14:36;2.80;;;0.20;;
40695;SDS011;40425;51.102;17.208;2023-02-01T00:19:39;2.77;;;0.20;;
40695;SDS011;40425;51.102;17.208;2023-02-01T00:24:40;3.23;;;0.20;;
40695;SDS011;40425;51.102;17.208;2023-02-01T00:29:41;4.07;;;0.30;;
40695;SDS011;40425;51.102;17.208;2023-02-01T00:34:42;3.63;;;0.10;;
40695;SDS011;40425;51.102;17.208;2023-02-01T00:39:42;5.73;;;0.30;;
40695;SDS011;40425;51.102;17.208;2023-02-01T00:44:43;3.23;;;0.20;;
40695;SDS011;40425;51.102;17.208;2023-02-01T00:49:44;3.67;;;0.27;;
40695;SDS011;40425;51.102;17.208;2023-02-01T00:54:45;6.07;;;0.20;;
40695;SDS011;40425;51.102;17.208;2023-02-01T00:59:46;3.97;;;0.30;;
40695;SDS011;40425;51.102;17.208;2023-02-01T01:04:47;6.33;;;0.20;;
40695;SDS011;40425;51.102;17.208;2023-02-01T01:09:47;4.80;;;0.40;;
40695;SDS011;40425;51.102;17.208;2023-02-01T01:14:48;6.97;;;0.73;;
40695;SDS011;40425;51.102;17.208;2023-02-01T01:19:49;6.57;;;0.53;;
40695;SDS011;40425;51.102;17.208;2023-02-01T01:24:50;5.33;;;0.80;;
40695;SDS011;40425;51.102;17.208;2023-02-01T01:29:51;8.57;;;0.63;;
40695;SDS011;40425;51.102;17.208;2023-02-01T01:34:52;6.50;;;0.70;;
40695;SDS011;40425;51.102;17.208;2023-02-01T01:39:52;8.47;;;0.60;;
40695;SDS011;40425;51.102;17.208;2023-02-01T01:45:00;9.03;;;1.00;;
40695;SDS011;40425;51.102;17.208;2023-02-01T01:50:06;9.23;;;0.80;;
40695;SDS011;40425;51.102;17.208;2023-02-01T01:55:11;8.20;;;0.60;;
40695;SDS011;40425;51.102;17.208;2023-02-01T02:00:17;2.43;;;0.23;;
40695;SDS011;40425;51.102;17.208;2023-02-01T02:05:20;2.97;;;0.33;;
40695;SDS011;40425;51.102;17.208;2023-02-01T02:10:21;5.73;;;0.50;;
40695;SDS011;40425;51.102;17.208;2023-02-01T02:15:44;3.43;;;0.60;;
40695;SDS011;40425;51.102;17.208;2023-02-01T02:21:10;12.33;;;1.13;;
40695;SDS011;40425;51.102;17.208;2023-02-01T02:42:36;9.50;;;0.77;;
40695;SDS011;40425;51.102;17.208;2023-02-01T02:53:18;9.90;;;0.80;;
40695;SDS011;40425;51.102;17.208;2023-02-01T02:58:43;9.67;;;1.00;;
40695;SDS011;40425;51.102;17.208;2023-02-01T03:04:04;12.60;;;1.20;;
40695;SDS011;40425;51.102;17.208;2023-02-01T03:09:11;7.97;;;1.00;;
40695;SDS011;40425;51.102;17.208;2023-02-01T03:14:19;8.23;;;0.90;;
40695;SDS011;40425;51.102;17.208;2023-02-01T03:19:25;15.73;;;1.60;;
40695;SDS011;40425;51.102;17.208;2023-02-01T03:24:33;13.47;;;1.30;;
40695;SDS011;40425;51.102;17.208;2023-02-01T03:29:45;10.27;;;1.53;;
40695;SDS011;40425;51.102;17.208;2023-02-01T03:34:52;11.53;;;1.27;;
40695;SDS011;40425;51.102;17.208;2023-02-01T03:39:58;13.77;;;1.10;;
40695;SDS011;40425;51.102;17.208;2023-02-01T03:45:13;14.47;;;1.27;;
40695;SDS011;40425;51.102;17.208;2023-02-01T03:50:24;11.13;;;1.40;;
40695;SDS011;40425;51.102;17.208;2023-02-01T03:55:27;11.10;;;0.83;;
40695;SDS011;40425;51.102;17.208;2023-02-01T04:00:29;10.83;;;1.07;;
40695;SDS011;40425;51.102;17.208;2023-02-01T04:05:30;7.43;;;0.80;;
40695;SDS011;40425;51.102;17.208;2023-02-01T04:10:32;11.40;;;1.27;;
40695;SDS011;40425;51.102;17.208;2023-02-01T04:15:33;9.20;;;0.83;;
40695;SDS011;40425;51.102;17.208;2023-02-01T04:20:34;11.40;;;1.13;;
40695;SDS011;40425;51.102;17.208;2023-02-01T04:25:35;13.50;;;1.20;;
40695;SDS011;40425;51.102;17.208;2023-02-01T04:30:36;14.63;;;1.27;;
40695;SDS011;40425;51.102;17.208;2023-02-01T04:35:37;13.93;;;1.03;;
40695;SDS011;40425;51.102;17.208;2023-02-01T04:40:38;11.90;;;0.90;;
40695;SDS011;40425;51.102;17.208;2023-02-01T04:45:39;10.60;;;1.73;;
40695;SDS011;40425;51.102;17.208;2023-02-01T04:50:39;9.87;;;1.40;;
40695;SDS011;40425;51.102;17.208;2023-02-01T04:55:41;16.00;;;1.27;;
40695;SDS011;40425;51.102;17.208;2023-02-01T05:00:42;10.67;;;1.13;;
40695;SDS011;40425;51.102;17.208;2023-02-01T05:05:43;10.60;;;1.27;;
40695;SDS011;40425;51.102;17.208;2023-02-01T05:10:44;11.27;;;1.10;;
40695;SDS011;40425;51.102;17.208;2023-02-01T05:15:45;11.47;;;1.10;;
40695;SDS011;40425;51.102;17.208;2023-02-01T05:20:46;9.70;;;1.27;;
40695;SDS011;40425;51.102;17.208;2023-02-01T05:25:47;9.07;;;0.70;;
40695;SDS011;40425;51.102;17.208;2023-02-01T05:30:48;18.80;;;1.47;;
40695;SDS011;40425;51.102;17.208;2023-02-01T05:35:49;10.00;;;1.03;;
40695;SDS011;40425;51.102;17.208;2023-02-01T05:40:50;14.53;;;1.60;;
40695;SDS011;40425;51.102;17.208;2023-02-01T05:45:51;16.07;;;1.27;;
40695;SDS011;40425;51.102;17.208;2023-02-01T05:50:52;8.67;;;1.43;;
40695;SDS011;40425;51.102;17.208;2023-02-01T05:55:53;14.93;;;1.47;;
40695;SDS011;40425;51.102;17.208;2023-02-01T06:00:54;13.20;;;1.10;;
40695;SDS011;40425;51.102;17.208;2023-02-01T06:05:55;9.03;;;1.27;;
40695;SDS011;40425;51.102;17.208;2023-02-01T06:11:05;10.60;;;0.87;;
40695;SDS011;40425;51.102;17.208;2023-02-01T06:16:06;6.85;;;0.80;;
40695;SDS011;40425;51.102;17.208;2023-02-01T06:21:07;8.33;;;1.03;;
40695;SDS011;40425;51.102;17.208;2023-02-01T06:26:09;7.53;;;0.93;;
40695;SDS011;40425;51.102;17.208;2023-02-01T06:31:10;12.10;;;1.00;;
40695;SDS011;40425;51.102;17.208;2023-02-01T06:36:11;5.60;;;0.50;;
40695;SDS011;40425;51.102;17.208;2023-02-01T06:41:13;6.87;;;1.00;;
40695;SDS011;40425;51.102;17.208;2023-02-01T06:46:14;10.43;;;0.80;;
40695;SDS011;40425;51.102;17.208;2023-02-01T06:51:22;8.33;;;1.40;;
40695;SDS011;40425;51.102;17.208;2023-02-01T06:56:24;9.50;;;1.50;;
40695;SDS011;40425;51.102;17.208;2023-02-01T07:01:26;9.40;;;0.97;;
40695;SDS011;40425;51.102;17.208;2023-02-01T07:06:26;5.30;;;0.70;;
40695;SDS011;40425;51.102;17.208;2023-02-01T07:11:27;10.43;;;1.10;;
40695;SDS011;40425;51.102;17.208;2023-02-01T07:16:28;17.07;;;1.50;;
40695;SDS011;40425;51.102;17.208;2023-02-01T07:21:31;13.67;;;2.73;;
40695;SDS011;40425;51.102;17.208;2023-02-01T07:26:32;10.07;;;0.80;;
40695;SDS011;40425;51.102;17.208;2023-02-01T07:31:32;17.10;;;1.40;;
40695;SDS011;40425;51.102;17.208;2023-02-01T07:36:33;11.43;;;0.90;;
40695;SDS011;40425;51.102;17.208;2023-02-01T07:41:36;8.00;;;1.57;;
40695;SDS011;40425;51.102;17.208;2023-02-01T07:46:37;9.43;;;1.13;;
40695;SDS011;40425;51.102;17.208;2023-02-01T07:51:39;9.30;;;1.47;;
40695;SDS011;40425;51.102;17.208;2023-02-01T07:56:40;10.47;;;1.47;;
40695;SDS011;40425;51.102;17.208;2023-02-01T08:01:41;8.13;;;0.97;;
40695;SDS011;40425;51.102;17.208;2023-02-01T08:06:42;8.47;;;1.20;;
40695;SDS011;40425;51.102;17.208;2023-02-01T08:11:43;10.07;;;1.20;;
40695;SDS011;40425;51.102;17.208;2023-02-01T08:16:44;11.07;;;2.20;;
40695;SDS011;40425;51.102;17.208;2023-02-01T08:21:45;11.40;;;1.30;;
40695;SDS011;40425;51.102;17.208;2023-02-01T08:26:48;10.60;;;1.27;;
40695;SDS011;40425;51.102;17.208;2023-02-01T08:31:49;8.23;;;1.63;;
40695;SDS011;40425;51.102;17.208;2023-02-01T08:36:52;12.13;;;1.60;;
40695;SDS011;40425;51.102;17.208;2023-02-01T08:41:57;8.33;;;1.27;;
40695;SDS011;40425;51.102;17.208;2023-02-01T08:47:16;11.03;;;0.73;;
40695;SDS011;40425;51.102;17.208;2023-02-01T08:52:17;12.30;;;0.90;;
40695;SDS011;40425;51.102;17.208;2023-02-01T08:57:18;11.40;;;1.50;;
40695;SDS011;40425;51.102;17.208;2023-02-01T09:02:19;9.10;;;1.30;;
40695;SDS011;40425;51.102;17.208;2023-02-01T09:07:20;9.10;;;1.53;;
40695;SDS011;40425;51.102;17.208;2023-02-01T09:12:21;12.07;;;1.20;;
40695;SDS011;40425;51.102;17.208;2023-02-01T09:17:22;7.10;;;1.00;;
40695;SDS011;40425;51.102;17.208;2023-02-01T09:22:23;6.90;;;1.20;;
40695;SDS011;40425;51.102;17.208;2023-02-01T09:27:24;8.90;;;1.37;;
40695;SDS011;40425;51.102;17.208;2023-02-01T09:32:25;10.47;;;1.87;;
40695;SDS011;40425;51.102;17.208;2023-02-01T09:37:26;11.87;;;1.23;;
40695;SDS011;40425;51.102;17.208;2023-02-01T09:47:47;9.07;;;1.27;;
40695;SDS011;40425;51.102;17.208;2023-02-01T09:53:12;10.30;;;0.90;;
40695;SDS011;40425;51.102;17.208;2023-02-01T09:58:33;6.23;;;1.23;;
40695;SDS011;40425;51.102;17.208;2023-02-01T10:03:41;7.97;;;0.77;;
40695;SDS011;40425;51.102;17.208;2023-02-01T10:29:42;6.43;;;0.95;;
40695;SDS011;40425;51.102;17.208;2023-02-01T10:39:52;5.00;;;1.10;;
40695;SDS011;40425;51.102;17.208;2023-02-01T10:44:59;6.13;;;1.03;;
40695;SDS011;40425;51.102;17.208;2023-02-01T11:00:41;6.03;;;1.50;;
40695;SDS011;40425;51.102;17.208;2023-02-01T11:05:43;6.32;;;1.30;;
40695;SDS011;40425;51.102;17.208;2023-02-01T11:10:45;5.03;;;0.83;;
40695;SDS011;40425;51.102;17.208;2023-02-01T11:15:46;13.03;;;0.80;;
40695;SDS011;40425;51.102;17.208;2023-02-01T11:20:55;10.90;;;1.07;;
40695;SDS011;40425;51.102;17.208;2023-02-01T11:25:57;7.20;;;0.87;;
40695;SDS011;40425;51.102;17.208;2023-02-01T11:31:01;8.80;;;1.60;;
40695;SDS011;40425;51.102;17.208;2023-02-01T11:36:08;5.87;;;1.20;;
40695;SDS011;40425;51.102;17.208;2023-02-01T11:41:14;6.00;;;0.90;;
40695;SDS011;40425;51.102;17.208;2023-02-01T11:46:30;6.00;;;0.87;;
40695;SDS011;40425;51.102;17.208;2023-02-01T11:56:46;8.07;;;1.23;;
40695;SDS011;40425;51.102;17.208;2023-02-01T12:01:58;5.43;;;0.68;;
40695;SDS011;40425;51.102;17.208;2023-02-01T12:07:23;3.90;;;0.70;;
40695;SDS011;40425;51.102;17.208;2023-02-01T12:23:56;3.97;;;0.87;;
40695;SDS011;40425;51.102;17.208;2023-02-01T12:34:54;3.90;;;0.70;;
40695;SDS011;40425;51.102;17.208;2023-02-01T12:40:23;2.67;;;0.73;;
40695;SDS011;40425;51.102;17.208;2023-02-01T12:45:54;5.33;;;0.50;;
40695;SDS011;40425;51.102;17.208;2023-02-01T12:51:07;2.60;;;0.60;;
40695;SDS011;40425;51.102;17.208;2023-02-01T12:56:19;3.17;;;0.80;;
40695;SDS011;40425;51.102;17.208;2023-02-01T13:01:35;3.57;;;0.70;;
40695;SDS011;40425;51.102;17.208;2023-02-01T13:12:16;2.00;;;0.60;;
40695;SDS011;40425;51.102;17.208;2023-02-01T13:17:38;2.23;;;0.57;;
40695;SDS011;40425;51.102;17.208;2023-02-01T13:22:42;2.50;;;1.10;;
40695;SDS011;40425;51.102;17.208;2023-02-01T13:27:46;2.90;;;0.70;;
40695;SDS011;40425;51.102;17.208;2023-02-01T13:38:46;3.20;;;0.60;;
40695;SDS011;40425;51.102;17.208;2023-02-01T13:44:13;5.03;;;0.80;;
40695;SDS011;40425;51.102;17.208;2023-02-01T13:49:20;2.67;;;0.60;;
40695;SDS011;40425;51.102;17.208;2023-02-01T13:54:26;3.00;;;0.40;;
40695;SDS011;40425;51.102;17.208;2023-02-01T14:04:50;3.70;;;0.50;;
40695;SDS011;40425;51.102;17.208;2023-02-01T14:14:53;4.30;;;0.70;;
40695;SDS011;40425;51.102;17.208;2023-02-01T14:20:40;4.67;;;1.23;;
40695;SDS011;40425;51.102;17.208;2023-02-01T14:25:41;5.38;;;0.77;;
40695;SDS011;40425;51.102;17.208;2023-02-01T14:30:43;3.77;;;1.17;;
40695;SDS011;40425;51.102;17.208;2023-02-01T14:35:46;3.60;;;0.43;;
40695;SDS011;40425;51.102;17.208;2023-02-01T14:52:06;3.87;;;1.73;;
40695;SDS011;40425;51.102;17.208;2023-02-01T14:57:16;5.50;;;1.10;;
40695;SDS011;40425;51.102;17.208;2023-02-01T15:02:24;3.97;;;1.23;;
40695;SDS011;40425;51.102;17.208;2023-02-01T15:07:27;8.10;;;1.00;;
40695;SDS011;40425;51.102;17.208;2023-02-01T15:12:29;7.43;;;1.40;;
40695;SDS011;40425;51.102;17.208;2023-02-01T15:17:32;7.57;;;1.57;;
40695;SDS011;40425;51.102;17.208;2023-02-01T15:22:36;8.73;;;1.63;;
40695;SDS011;40425;51.102;17.208;2023-02-01T15:27:37;9.07;;;1.83;;
40695;SDS011;40425;51.102;17.208;2023-02-01T15:32:38;8.70;;;1.63;;
40695;SDS011;40425;51.102;17.208;2023-02-01T15:37:40;7.13;;;1.30;;
40695;SDS011;40425;51.102;17.208;2023-02-01T15:43:14;10.90;;;1.30;;
40695;SDS011;40425;51.102;17.208;2023-02-01T15:48:19;7.00;;;0.90;;
40695;SDS011;40425;51.102;17.208;2023-02-01T15:53:23;6.17;;;0.80;;
40695;SDS011;40425;51.102;17.208;2023-02-01T15:58:30;7.00;;;1.40;;
40695;SDS011;40425;51.102;17.208;2023-02-01T16:03:41;3.57;;;0.93;;
40695;SDS011;40425;51.102;17.208;2023-02-01T16:08:51;11.90;;;2.50;;
40695;SDS011;40425;51.102;17.208;2023-02-01T16:14:01;5.67;;;0.90;;
40695;SDS011;40425;51.102;17.208;2023-02-01T16:19:02;5.97;;;1.20;;
40695;SDS011;40425;51.102;17.208;2023-02-01T16:24:03;5.23;;;1.43;;
40695;SDS011;40425;51.102;17.208;2023-02-01T16:29:04;6.20;;;0.77;;
40695;SDS011;40425;51.102;17.208;2023-02-01T16:34:11;5.43;;;1.03;;
40695;SDS011;40425;51.102;17.208;2023-02-01T16:39:19;2.67;;;0.60;;
40695;SDS011;40425;51.102;17.208;2023-02-01T16:44:21;9.83;;;1.20;;
40695;SDS011;40425;51.102;17.208;2023-02-01T16:49:23;6.07;;;1.10;;
40695;SDS011;40425;51.102;17.208;2023-02-01T16:54:25;4.57;;;1.30;;
40695;SDS011;40425;51.102;17.208;2023-02-01T16:59:26;5.97;;;1.03;;
40695;SDS011;40425;51.102;17.208;2023-02-01T17:04:28;7.47;;;1.50;;
40695;SDS011;40425;51.102;17.208;2023-02-01T17:09:29;5.93;;;1.30;;
40695;SDS011;40425;51.102;17.208;2023-02-01T17:14:31;6.03;;;1.67;;
40695;SDS011;40425;51.102;17.208;2023-02-01T17:19:35;8.03;;;2.70;;
40695;SDS011;40425;51.102;17.208;2023-02-01T17:24:36;8.27;;;1.77;;
40695;SDS011;40425;51.102;17.208;2023-02-01T17:29:37;13.80;;;2.47;;
40695;SDS011;40425;51.102;17.208;2023-02-01T17:34:38;6.03;;;1.70;;
40695;SDS011;40425;51.102;17.208;2023-02-01T17:39:39;8.53;;;2.73;;
40695;SDS011;40425;51.102;17.208;2023-02-01T17:44:56;8.77;;;2.97;;
40695;SDS011;40425;51.102;17.208;2023-02-01T17:50:00;8.27;;;2.93;;
40695;SDS011;40425;51.102;17.208;2023-02-01T17:55:01;13.27;;;3.67;;
40695;SDS011;40425;51.102;17.208;2023-02-01T18:00:03;10.60;;;2.40;;
40695;SDS011;40425;51.102;17.208;2023-02-01T18:10:43;8.63;;;2.07;;
40695;SDS011;40425;51.102;17.208;2023-02-01T18:15:44;9.70;;;3.07;;
40695;SDS011;40425;51.102;17.208;2023-02-01T18:20:45;6.17;;;1.47;;
40695;SDS011;40425;51.102;17.208;2023-02-01T18:25:49;10.37;;;1.73;;
40695;SDS011;40425;51.102;17.208;2023-02-01T18:30:51;4.73;;;1.07;;
40695;SDS011;40425;51.102;17.208;2023-02-01T18:35:52;11.17;;;2.03;;
40695;SDS011;40425;51.102;17.208;2023-02-01T18:40:54;8.07;;;1.40;;
40695;SDS011;40425;51.102;17.208;2023-02-01T18:45:57;10.07;;;1.77;;
40695;SDS011;40425;51.102;17.208;2023-02-01T18:51:04;4.60;;;0.80;;
40695;SDS011;40425;51.102;17.208;2023-02-01T18:56:05;4.53;;;0.80;;
40695;SDS011;40425;51.102;17.208;2023-02-01T19:01:14;4.70;;;1.30;;
40695;SDS011;40425;51.102;17.208;2023-02-01T19:06:17;6.13;;;1.90;;
40695;SDS011;40425;51.102;17.208;2023-02-01T19:11:17;10.90;;;3.70;;
40695;SDS011;40425;51.102;17.208;2023-02-01T19:16:18;8.60;;;2.83;;
40695;SDS011;40425;51.102;17.208;2023-02-01T19:21:19;9.80;;;2.73;;
40695;SDS011;40425;51.102;17.208;2023-02-01T19:26:20;7.33;;;2.33;;
40695;SDS011;40425;51.102;17.208;2023-02-01T19:31:24;7.77;;;3.17;;
40695;SDS011;40425;51.102;17.208;2023-02-01T19:36:27;8.97;;;2.63;;
40695;SDS011;40425;51.102;17.208;2023-02-01T19:41:28;6.10;;;1.97;;
40695;SDS011;40425;51.102;17.208;2023-02-01T19:46:30;7.80;;;2.43;;
40695;SDS011;40425;51.102;17.208;2023-02-01T19:51:31;6.83;;;1.73;;
40695;SDS011;40425;51.102;17.208;2023-02-01T19:56:32;6.37;;;1.37;;
40695;SDS011;40425;51.102;17.208;2023-02-01T20:01:34;4.30;;;0.90;;
40695;SDS011;40425;51.102;17.208;2023-02-01T20:06:38;4.33;;;0.80;;
40695;SDS011;40425;51.102;17.208;2023-02-01T20:16:49;1.27;;;0.33;;
40695;SDS011;40425;51.102;17.208;2023-02-01T20:21:51;2.30;;;0.50;;
40695;SDS011;40425;51.102;17.208;2023-02-01T20:26:52;3.60;;;0.63;;
40695;SDS011;40425;51.102;17.208;2023-02-01T20:31:53;1.03;;;0.40;;
40695;SDS011;40425;51.102;17.208;2023-02-01T20:36:54;1.53;;;0.30;;
40695;SDS011;40425;51.102;17.208;2023-02-01T20:41:55;3.60;;;0.80;;
40695;SDS011;40425;51.102;17.208;2023-02-01T20:46:56;0.53;;;0.20;;
40695;SDS011;40425;51.102;17.208;2023-02-01T20:51:57;2.53;;;0.40;;
40695;SDS011;40425;51.102;17.208;2023-02-01T20:56:58;2.23;;;0.50;;
40695;SDS011;40425;51.102;17.208;2023-02-01T21:01:59;2.73;;;0.60;;
40695;SDS011;40425;51.102;17.208;2023-02-01T21:07:01;4.10;;;1.67;;
40695;SDS011;40425;51.102;17.208;2023-02-01T21:12:02;4.30;;;1.63;;
40695;SDS011;40425;51.102;17.208;2023-02-01T21:17:03;4.27;;;2.10;;
40695;SDS011;40425;51.102;17.208;2023-02-01T21:22:04;4.63;;;1.33;;
40695;SDS011;40425;51.102;17.208;2023-02-01T21:27:07;4.37;;;0.80;;
40695;SDS011;40425;51.102;17.208;2023-02-01T21:32:08;3.57;;;0.83;;
40695;SDS011;40425;51.102;17.208;2023-02-01T21:37:09;2.37;;;0.70;;
40695;SDS011;40425;51.102;17.208;2023-02-01T21:42:10;2.40;;;0.80;;
40695;SDS011;40425;51.102;17.208;2023-02-01T21:47:19;3.67;;;0.80;;
40695;SDS011;40425;51.102;17.208;2023-02-01T21:52:21;1.73;;;0.70;;
40695;SDS011;40425;51.102;17.208;2023-02-01T21:57:22;2.00;;;0.63;;
40695;SDS011;40425;51.102;17.208;2023-02-01T22:02:23;3.90;;;0.47;;
40695;SDS011;40425;51.102;17.208;2023-02-01T22:07:24;1.30;;;0.40;;
40695;SDS011;40425;51.102;17.208;2023-02-01T22:12:25;1.37;;;0.50;;
40695;SDS011;40425;51.102;17.208;2023-02-01T22:17:26;2.37;;;0.40;;
40695;SDS011;40425;51.102;17.208;2023-02-01T22:22:27;2.40;;;0.47;;
40695;SDS011;40425;51.102;17.208;2023-02-01T22:27:28;2.40;;;0.50;;
40695;SDS011;40425;51.102;17.208;2023-02-01T22:32:29;5.17;;;1.93;;
40695;SDS011;40425;51.102;17.208;2023-02-01T22:37:30;4.90;;;1.10;;
40695;SDS011;40425;51.102;17.208;2023-02-01T22:42:31;4.10;;;1.10;;
40695;SDS011;40425;51.102;17.208;2023-02-01T22:47:32;4.33;;;1.10;;
40695;SDS011;40425;51.102;17.208;2023-02-01T22:52:33;2.97;;;0.70;;
40695;SDS011;40425;51.102;17.208;2023-02-01T22:57:33;4.77;;;1.10;;
40695;SDS011;40425;51.102;17.208;2023-02-01T23:02:34;6.77;;;1.17;;
40695;SDS011;40425;51.102;17.208;2023-02-01T23:07:35;5.93;;;1.23;;
40695;SDS011;40425;51.102;17.208;2023-02-01T23:12:36;6.33;;;1.33;;
40695;SDS011;40425;51.102;17.208;2023-02-01T23:17:37;10.37;;;1.50;;
40695;SDS011;40425;51.102;17.208;2023-02-01T23:22:40;7.70;;;0.77;;
40695;SDS011;40425;51.102;17.208;2023-02-01T23:27:41;7.57;;;0.80;;
40695;SDS011;40425;51.102;17.208;2023-02-01T23:32:42;11.57;;;1.10;;
40695;SDS011;40425;51.102;17.208;2023-02-01T23:37:43;6.17;;;1.17;;
40695;SDS011;40425;51.102;17.208;2023-02-01T23:42:44;8.87;;;1.33;;
40695;SDS011;40425;51.102;17.208;2023-02-01T23:58:06;9.02;;;1.77;;
